createdAt,value
2019-02-21T00:01:45.843Z,6.60
2019-02-21T00:04:25.593Z,6.50
2019-02-21T00:07:05.767Z,6.50
2019-02-21T00:09:46.210Z,6.50
2019-02-21T00:12:26.341Z,6.70
2019-02-21T00:15:06.512Z,6.40
2019-02-21T00:17:46.519Z,6.30
2019-02-21T00:20:26.744Z,6.50
2019-02-21T00:23:06.799Z,6.50
2019-02-21T00:25:47.028Z,6.70
2019-02-21T00:28:27.450Z,6.40
2019-02-21T00:31:07.517Z,6.40
2019-02-21T00:33:47.717Z,6.50
2019-02-21T00:36:27.844Z,6.70
2019-02-21T00:39:07.961Z,6.40
2019-02-21T00:41:47.977Z,6.50
2019-02-21T00:44:28.214Z,6.70
2019-02-21T00:47:08.332Z,6.50
2019-02-21T00:49:48.501Z,6.60
2019-02-21T00:52:31.319Z,6.60
2019-02-21T00:55:10.816Z,6.50
2019-02-21T00:57:51.004Z,6.70
2019-02-21T01:00:31.043Z,6.50
2019-02-21T01:03:11.627Z,6.30
2019-02-21T01:05:51.722Z,6.20
2019-02-21T01:08:31.845Z,6.10
2019-02-21T01:11:12.582Z,6.10
2019-02-21T01:13:40.272Z,6.00
2019-02-21T01:19:20.152Z,6.00
2019-02-21T01:22:07.195Z,6.20
2019-02-21T01:24:47.643Z,6.30
2019-02-21T01:27:27.643Z,6.30
2019-02-21T01:33:06.593Z,6.60
2019-02-21T01:35:46.837Z,6.50
2019-02-21T01:38:26.636Z,6.40
2019-02-21T01:41:06.655Z,6.60
2019-02-21T01:43:46.675Z,6.50
2019-02-21T01:46:26.731Z,6.40
2019-02-21T01:49:06.578Z,6.40
2019-02-21T01:51:46.592Z,6.40
2019-02-21T01:54:26.941Z,6.80
2019-02-21T01:57:06.716Z,6.70
2019-02-21T01:59:47.096Z,6.60
2019-02-21T02:02:27.241Z,6.60
2019-02-21T02:07:51.104Z,6.60
2019-02-21T02:10:38.316Z,6.80
2019-02-21T02:13:24.705Z,6.60
2019-02-21T02:16:00.981Z,6.60
2019-02-21T02:18:41.163Z,6.50
2019-02-21T02:21:21.144Z,6.40
2019-02-21T02:24:01.229Z,6.10
2019-02-21T02:26:41.420Z,6.00
2019-02-21T02:29:21.343Z,5.90
2019-02-21T02:32:01.451Z,5.80
2019-02-21T02:34:41.713Z,5.80
2019-02-21T02:37:21.830Z,5.70
2019-02-21T02:40:01.944Z,5.90
2019-02-21T02:42:42.253Z,5.80
2019-02-21T02:45:22.318Z,5.90
2019-02-21T02:48:02.344Z,5.70
2019-02-21T02:50:42.693Z,5.80
2019-02-21T02:53:22.446Z,5.60
2019-02-21T02:56:02.510Z,5.40
2019-02-21T02:58:45.314Z,5.50
2019-02-21T03:01:34.295Z,5.40
2019-02-21T03:04:06.713Z,5.40
2019-02-21T03:06:46.549Z,5.30
2019-02-21T03:09:26.469Z,5.20
2019-02-21T03:12:06.558Z,5.10
2019-02-21T03:14:34.381Z,5.10
2019-02-21T03:17:21.412Z,5.10
2019-02-21T03:20:01.024Z,5.00
2019-02-21T03:22:41.108Z,5.10
2019-02-21T03:25:21.062Z,5.10
2019-02-21T03:28:01.142Z,5.30
2019-02-21T03:30:41.286Z,5.40
2019-02-21T03:33:21.368Z,5.20
2019-02-21T03:36:01.559Z,5.10
2019-02-21T03:38:42.090Z,5.00
2019-02-21T03:41:21.901Z,5.10
2019-02-21T03:44:02.343Z,4.90
2019-02-21T03:46:42.508Z,5.10
2019-02-21T03:49:22.575Z,5.10
2019-02-21T03:52:03.064Z,4.70
2019-02-21T03:54:42.861Z,4.90
2019-02-21T03:57:23.036Z,5.10
2019-02-21T04:00:03.125Z,4.70
2019-02-21T04:02:43.260Z,4.80
2019-02-21T04:05:23.254Z,4.80
2019-02-21T04:08:03.295Z,4.90
2019-02-21T04:10:43.342Z,4.80
2019-02-21T04:13:23.489Z,4.80
2019-02-21T04:16:03.831Z,5.00
2019-02-21T04:18:43.882Z,4.90
2019-02-21T04:21:23.921Z,4.80
2019-02-21T04:24:04.021Z,4.80
2019-02-21T04:26:44.550Z,4.90
2019-02-21T04:29:24.753Z,4.70
2019-02-21T04:32:16.142Z,4.90
2019-02-21T04:34:47.020Z,5.10
2019-02-21T04:37:27.112Z,4.70
2019-02-21T04:40:07.185Z,4.70
2019-02-21T04:42:47.293Z,4.70
2019-02-21T04:45:27.259Z,4.60
2019-02-21T04:48:08.738Z,4.70
2019-02-21T04:50:48.637Z,4.30
2019-02-21T04:53:28.906Z,4.40
2019-02-21T04:59:21.396Z,4.50
2019-02-21T05:02:01.438Z,4.30
2019-02-21T05:04:41.716Z,4.30
2019-02-21T05:07:21.920Z,4.10
2019-02-21T05:10:02.092Z,4.20
2019-02-21T05:12:42.425Z,4.20
2019-02-21T05:15:22.244Z,4.30
2019-02-21T05:18:02.537Z,4.10
2019-02-21T05:20:42.544Z,4.20
2019-02-21T05:23:22.720Z,4.20
2019-02-21T05:26:02.646Z,4.20
2019-02-21T05:28:42.744Z,4.20
2019-02-21T05:31:48.136Z,4.20
2019-02-21T05:34:35.266Z,4.40
2019-02-21T05:37:22.436Z,4.20
2019-02-21T05:40:28.905Z,4.20
2019-02-21T05:43:31.016Z,4.20
2019-02-21T05:46:32.380Z,3.90
2019-02-21T05:49:06.204Z,3.90
2019-02-21T05:51:50.767Z,4.10
2019-02-21T05:54:49.778Z,3.90
2019-02-21T05:57:49.350Z,4.40
2019-02-21T06:03:51.409Z,4.30
2019-02-21T06:09:50.069Z,4.30
2019-02-21T06:12:49.232Z,4.20
2019-02-21T06:15:37.304Z,4.30
2019-02-21T06:18:36.286Z,4.20
2019-02-21T06:24:36.586Z,4.20
2019-02-21T06:27:23.552Z,4.50
2019-02-21T06:30:26.228Z,4.10
2019-02-21T06:33:06.076Z,4.00
2019-02-21T06:35:45.963Z,4.00
2019-02-21T06:38:26.308Z,4.00
2019-02-21T06:41:07.630Z,4.00
2019-02-21T06:43:47.782Z,4.00
2019-02-21T06:46:28.169Z,4.10
2019-02-21T06:49:07.945Z,4.10
2019-02-21T06:51:47.956Z,4.10
2019-02-21T06:54:28.269Z,4.20
2019-02-21T06:57:08.057Z,4.30
2019-02-21T06:59:48.169Z,4.30
2019-02-21T07:02:28.338Z,4.30
2019-02-21T07:05:08.624Z,4.40
2019-02-21T07:07:36.232Z,4.50
2019-02-21T07:13:26.442Z,4.40
2019-02-21T07:16:01.733Z,4.60
2019-02-21T07:18:42.069Z,4.80
2019-02-21T07:21:22.041Z,4.90
2019-02-21T07:24:02.226Z,5.10
2019-02-21T07:26:42.885Z,5.10
2019-02-21T07:29:22.638Z,5.30
2019-02-21T07:32:02.988Z,5.60
2019-02-21T07:37:42.434Z,6.00
2019-02-21T07:40:22.056Z,6.40
2019-02-21T07:43:02.041Z,6.60
2019-02-21T07:45:42.562Z,7.20
2019-02-21T07:48:22.436Z,7.70
2019-02-21T07:51:02.785Z,8.10
2019-02-21T07:53:43.069Z,8.60
2019-02-21T07:56:23.413Z,9.30
2019-02-21T07:59:03.418Z,9.70
2019-02-21T08:01:43.559Z,10.00
2019-02-21T08:04:23.652Z,10.10
2019-02-21T08:07:03.771Z,10.40
2019-02-21T08:09:44.059Z,10.50
2019-02-21T08:12:24.163Z,11.10
2019-02-21T08:15:04.235Z,11.30
2019-02-21T08:17:31.845Z,11.60
2019-02-21T08:20:18.904Z,11.80
2019-02-21T08:22:59.093Z,12.20
2019-02-21T08:25:39.364Z,12.30
2019-02-21T08:28:19.555Z,12.80
2019-02-21T08:31:00.645Z,13.00
2019-02-21T08:34:04.273Z,13.20
2019-02-21T08:36:45.460Z,13.40
2019-02-21T08:39:26.379Z,13.70
2019-02-21T08:42:07.538Z,13.70
2019-02-21T08:44:47.711Z,13.70
2019-02-21T08:47:27.966Z,13.80
2019-02-21T08:50:07.824Z,13.90
2019-02-21T08:52:48.034Z,14.20
2019-02-21T08:55:28.163Z,14.50
2019-02-21T08:58:08.146Z,14.80
2019-02-21T09:00:48.145Z,15.40
2019-02-21T09:03:28.391Z,15.60
2019-02-21T09:06:08.612Z,16.00
2019-02-21T09:08:48.876Z,16.30
2019-02-21T09:11:29.176Z,16.80
2019-02-21T09:13:57.668Z,17.10
2019-02-21T09:16:44.731Z,17.30
2019-02-21T09:19:31.742Z,17.70
2019-02-21T09:22:18.756Z,18.10
2019-02-21T09:24:59.205Z,18.70
2019-02-21T09:27:39.930Z,19.20
2019-02-21T09:30:19.806Z,19.50
2019-02-21T09:32:59.814Z,19.60
2019-02-21T09:35:39.907Z,19.00
2019-02-21T09:38:20.349Z,18.80
2019-02-21T09:41:00.513Z,19.00
2019-02-21T09:43:40.481Z,18.80
2019-02-21T09:46:22.071Z,18.60
2019-02-21T09:49:03.052Z,18.70
2019-02-21T09:51:42.921Z,18.70
2019-02-21T09:54:22.942Z,18.50
2019-02-21T10:00:14.720Z,18.90
2019-02-21T10:02:56.716Z,19.00
2019-02-21T10:05:36.545Z,19.30
2019-02-21T10:08:16.661Z,19.50
2019-02-21T10:10:56.642Z,19.70
2019-02-21T10:13:36.822Z,20.00
2019-02-21T10:16:16.759Z,19.80
2019-02-21T10:18:56.623Z,20.00
2019-02-21T10:21:36.833Z,19.80
2019-02-21T10:24:16.967Z,19.90
2019-02-21T10:26:57.192Z,20.20
2019-02-21T10:29:37.364Z,20.10
2019-02-21T10:32:17.605Z,20.50
2019-02-21T10:34:57.641Z,20.70
2019-02-21T10:37:37.864Z,20.90
2019-02-21T10:40:17.995Z,21.80
2019-02-21T10:42:58.176Z,22.30
2019-02-21T10:45:47.442Z,22.50
2019-02-21T10:48:20.186Z,22.90
2019-02-21T10:51:00.409Z,23.30
2019-02-21T10:53:40.397Z,23.70
2019-02-21T10:56:20.377Z,24.30
2019-02-21T10:59:00.287Z,24.60
2019-02-21T11:01:40.452Z,25.00
2019-02-21T11:04:20.542Z,25.30
2019-02-21T11:06:48.211Z,25.60
2019-02-21T11:09:35.236Z,25.80
2019-02-21T11:12:22.270Z,26.10
2019-02-21T11:15:02.558Z,26.40
2019-02-21T11:17:42.515Z,26.50
2019-02-21T11:20:22.434Z,26.70
2019-02-21T11:23:02.496Z,26.90
2019-02-21T11:25:42.444Z,27.10
2019-02-21T11:28:22.314Z,27.30
2019-02-21T11:30:49.943Z,27.50
2019-02-21T11:33:36.970Z,27.90
2019-02-21T11:36:24.383Z,28.20
2019-02-21T11:39:04.585Z,28.50
2019-02-21T11:41:42.803Z,28.90
2019-02-21T11:44:22.389Z,29.00
2019-02-21T11:47:02.480Z,29.10
2019-02-21T11:49:42.946Z,29.20
2019-02-21T11:52:22.757Z,29.60
2019-02-21T11:55:02.774Z,29.80
2019-02-21T11:57:31.248Z,29.90
2019-02-21T11:59:58.828Z,30.30
2019-02-21T12:02:26.500Z,30.50
2019-02-21T12:04:54.116Z,30.60
2019-02-21T12:07:21.749Z,30.90
2019-02-21T12:09:49.360Z,31.10
2019-02-21T12:12:17.096Z,31.30
2019-02-21T12:14:45.507Z,31.30
2019-02-21T12:17:13.131Z,31.30
2019-02-21T12:19:40.700Z,31.40
2019-02-21T12:22:08.291Z,31.60
2019-02-21T12:24:35.916Z,31.80
2019-02-21T12:27:03.597Z,32.00
2019-02-21T12:29:31.225Z,32.10
2019-02-21T12:32:18.213Z,32.30
2019-02-21T12:34:57.985Z,32.30
2019-02-21T12:37:37.770Z,32.20
2019-02-21T12:40:18.164Z,32.30
2019-02-21T12:42:58.144Z,32.30
2019-02-21T12:45:38.064Z,32.30
2019-02-21T12:48:18.180Z,32.50
2019-02-21T12:50:58.230Z,32.60
2019-02-21T12:53:38.709Z,32.70
2019-02-21T12:56:18.702Z,32.90
2019-02-21T12:58:58.577Z,32.90
2019-02-21T13:01:38.633Z,33.10
2019-02-21T13:04:19.047Z,33.30
2019-02-21T13:06:58.929Z,33.50
2019-02-21T13:09:39.007Z,33.70
2019-02-21T13:12:18.834Z,33.70
2019-02-21T13:14:58.944Z,33.70
2019-02-21T13:17:39.068Z,33.60
2019-02-21T13:20:19.291Z,33.60
2019-02-21T13:22:59.312Z,33.60
2019-02-21T13:25:26.988Z,33.50
2019-02-21T13:28:14.036Z,33.50
2019-02-21T13:31:01.047Z,33.60
2019-02-21T13:33:41.026Z,33.50
2019-02-21T13:36:20.800Z,33.50
2019-02-21T13:39:01.345Z,33.50
2019-02-21T13:41:41.087Z,33.50
2019-02-21T13:44:21.253Z,33.70
2019-02-21T13:46:48.905Z,33.70
2019-02-21T13:49:36.278Z,33.70
2019-02-21T13:52:23.360Z,33.70
2019-02-21T13:55:03.284Z,33.60
2019-02-21T13:57:43.823Z,33.60
2019-02-21T14:00:23.637Z,33.70
2019-02-21T14:03:04.703Z,33.60
2019-02-21T14:05:45.014Z,33.70
2019-02-21T14:08:25.357Z,33.90
2019-02-21T14:11:06.072Z,34.00
2019-02-21T14:13:46.095Z,34.20
2019-02-21T14:16:15.561Z,34.20
2019-02-21T14:19:02.576Z,34.30
2019-02-21T14:21:49.672Z,34.50
2019-02-21T14:24:17.532Z,34.60
2019-02-21T14:27:04.569Z,34.70
2019-02-21T14:29:51.577Z,34.70
2019-02-21T14:32:19.276Z,34.80
2019-02-21T14:35:06.865Z,34.70
2019-02-21T14:37:47.293Z,34.70
2019-02-21T14:40:27.137Z,34.70
2019-02-21T14:43:07.392Z,34.50
2019-02-21T14:45:47.354Z,34.30
2019-02-21T14:48:27.705Z,34.10
2019-02-21T14:51:07.412Z,34.00
2019-02-21T14:53:47.758Z,34.00
2019-02-21T14:56:27.826Z,33.90
2019-02-21T14:59:07.901Z,33.80
2019-02-21T15:01:48.091Z,33.60
2019-02-21T15:04:28.188Z,33.40
2019-02-21T15:07:09.001Z,33.50
2019-02-21T15:09:49.172Z,33.50
2019-02-21T15:12:29.554Z,33.20
2019-02-21T15:15:09.709Z,32.90
2019-02-21T15:17:49.840Z,32.60
2019-02-21T15:20:36.978Z,32.40
2019-02-21T15:23:01.634Z,32.20
2019-02-21T15:25:48.688Z,32.10
2019-02-21T15:28:35.718Z,31.90
2019-02-21T15:31:16.268Z,31.80
2019-02-21T15:33:56.356Z,31.60
2019-02-21T15:36:38.556Z,31.50
2019-02-21T15:39:18.795Z,31.10
2019-02-21T15:41:58.790Z,30.50
2019-02-21T15:44:39.035Z,29.70
2019-02-21T15:47:19.180Z,29.00
2019-02-21T15:49:59.435Z,28.20
2019-02-21T15:52:39.636Z,27.60
2019-02-21T15:55:19.877Z,26.80
2019-02-21T15:58:03.880Z,26.30
2019-02-21T16:00:42.337Z,26.10
2019-02-21T16:03:22.184Z,25.90
2019-02-21T16:09:15.416Z,25.70
2019-02-21T16:11:46.093Z,25.60
2019-02-21T16:14:26.581Z,25.20
2019-02-21T16:17:06.131Z,24.90
2019-02-21T16:19:46.129Z,23.80
2019-02-21T16:22:26.341Z,23.10
2019-02-21T16:25:06.455Z,22.40
2019-02-21T16:27:46.513Z,21.60
2019-02-21T16:30:27.126Z,21.10
2019-02-21T16:33:06.846Z,20.60
2019-02-21T16:35:47.353Z,20.40
2019-02-21T16:38:27.140Z,20.00
2019-02-21T16:44:07.124Z,19.30
2019-02-21T16:46:47.181Z,19.00
2019-02-21T16:49:27.628Z,18.70
2019-02-21T16:52:07.853Z,18.20
2019-02-21T16:54:47.753Z,17.80
2019-02-21T16:57:27.804Z,17.50
2019-02-21T17:00:07.675Z,17.20
2019-02-21T17:02:47.850Z,16.80
2019-02-21T17:05:28.430Z,16.30
2019-02-21T17:08:09.784Z,16.10
2019-02-21T17:10:50.210Z,15.70
2019-02-21T17:13:30.154Z,15.30
2019-02-21T17:16:10.170Z,15.10
2019-02-21T17:18:50.427Z,14.80
2019-02-21T17:21:30.930Z,14.60
2019-02-21T17:24:10.813Z,14.40
2019-02-21T17:26:50.808Z,14.20
2019-02-21T17:29:28.956Z,13.90
2019-02-21T17:32:09.483Z,13.70
2019-02-21T17:34:49.704Z,13.70
2019-02-21T17:37:29.657Z,13.40
2019-02-21T17:40:09.845Z,13.30
2019-02-21T17:42:49.879Z,13.10
2019-02-21T17:45:30.421Z,13.10
2019-02-21T17:47:58.233Z,12.90
2019-02-21T17:50:45.288Z,12.80
2019-02-21T17:53:32.358Z,12.70
2019-02-21T17:56:19.741Z,12.60
2019-02-21T17:58:59.977Z,12.80
2019-02-21T18:01:40.011Z,12.50
2019-02-21T18:04:20.161Z,12.40
2019-02-21T18:09:58.585Z,12.40
2019-02-21T18:12:38.709Z,12.20
2019-02-21T18:15:18.894Z,12.20
2019-02-21T18:17:59.189Z,12.10
2019-02-21T18:20:39.155Z,11.90
2019-02-21T18:23:19.304Z,11.80
2019-02-21T18:25:59.499Z,11.90
2019-02-21T18:28:39.493Z,11.80
2019-02-21T18:31:19.778Z,11.70
2019-02-21T18:34:00.043Z,11.60
2019-02-21T18:36:40.236Z,11.70
2019-02-21T18:39:20.306Z,11.60
2019-02-21T18:41:48.403Z,11.80
2019-02-21T18:44:35.442Z,11.60
2019-02-21T18:47:22.514Z,11.90
2019-02-21T18:50:02.158Z,11.40
2019-02-21T18:52:42.499Z,12.10
2019-02-21T18:55:22.494Z,11.40
2019-02-21T18:57:50.435Z,11.70
2019-02-21T19:00:37.478Z,11.50
2019-02-21T19:03:24.655Z,11.40
2019-02-21T19:06:02.852Z,11.50
2019-02-21T19:08:49.877Z,11.50
2019-02-21T19:11:29.568Z,11.40
2019-02-21T19:14:09.789Z,11.30
2019-02-21T19:16:50.075Z,11.30
2019-02-21T19:19:31.105Z,11.20
2019-02-21T19:22:11.403Z,11.10
2019-02-21T19:24:51.547Z,11.10
2019-02-21T19:27:37.161Z,11.00
2019-02-21T19:30:14.600Z,11.00
2019-02-21T19:32:54.965Z,10.90
2019-02-21T19:35:35.220Z,10.70
2019-02-21T19:38:15.313Z,10.60
2019-02-21T19:40:55.592Z,10.60
2019-02-21T19:43:35.983Z,10.50
2019-02-21T19:46:16.249Z,10.50
2019-02-21T19:49:03.416Z,10.50
2019-02-21T19:51:50.558Z,10.50
2019-02-21T19:54:30.896Z,10.40
2019-02-21T19:57:11.355Z,10.30
2019-02-21T19:59:52.487Z,10.50
2019-02-21T20:02:32.348Z,10.60
2019-02-21T20:05:13.774Z,10.50
2019-02-21T20:07:53.651Z,10.60
2019-02-21T20:10:33.941Z,10.80
2019-02-21T20:13:14.696Z,10.40
2019-02-21T20:15:54.959Z,10.20
2019-02-21T20:18:35.165Z,10.20
2019-02-21T20:21:15.106Z,10.10
2019-02-21T20:23:55.262Z,10.00
2019-02-21T20:26:35.307Z,9.90
2019-02-21T20:29:15.521Z,10.00
2019-02-21T20:31:55.895Z,10.30
2019-02-21T20:34:23.752Z,10.30
2019-02-21T20:37:10.879Z,10.20
2019-02-21T20:39:58.011Z,10.00
2019-02-21T20:42:40.648Z,10.00
2019-02-21T20:45:21.069Z,10.10
2019-02-21T20:48:01.340Z,10.20
2019-02-21T20:50:41.308Z,10.10
2019-02-21T20:53:21.299Z,10.10
2019-02-21T20:56:01.505Z,10.20
2019-02-21T20:58:41.684Z,10.00
2019-02-21T21:04:20.161Z,9.90
2019-02-21T21:07:00.845Z,10.00
2019-02-21T21:09:29.197Z,9.80
2019-02-21T21:12:16.281Z,9.90
2019-02-21T21:15:03.321Z,9.80
2019-02-21T21:17:46.092Z,9.60
2019-02-21T21:20:26.110Z,10.00
2019-02-21T21:23:05.996Z,9.80
2019-02-21T21:25:46.101Z,9.80
2019-02-21T21:28:26.183Z,9.60
2019-02-21T21:30:53.956Z,9.60
2019-02-21T21:33:21.746Z,9.60
2019-02-21T21:38:54.197Z,9.50
2019-02-21T21:41:30.201Z,9.50
2019-02-21T21:44:10.434Z,9.80
2019-02-21T21:46:50.645Z,9.50
2019-02-21T21:49:31.084Z,9.30
2019-02-21T21:52:11.171Z,9.40
2019-02-21T21:54:51.255Z,9.30
2019-02-21T21:57:31.109Z,9.00
2019-02-21T22:00:11.071Z,9.00
2019-02-21T22:02:51.548Z,8.90
2019-02-21T22:08:32.914Z,9.10
2019-02-21T22:11:12.962Z,9.10
2019-02-21T22:13:53.199Z,9.20
2019-02-21T22:16:33.156Z,9.10
2019-02-21T22:19:13.313Z,9.00
2019-02-21T22:21:53.832Z,9.10
2019-02-21T22:24:34.446Z,9.20
2019-02-21T22:27:02.231Z,8.90
2019-02-21T22:29:49.337Z,9.00
2019-02-21T22:32:36.410Z,9.00
2019-02-21T22:35:16.509Z,9.00
2019-02-21T22:37:56.822Z,8.80
2019-02-21T22:40:36.994Z,8.80
2019-02-21T22:43:17.146Z,8.80
2019-02-21T22:45:57.233Z,9.00
2019-02-21T22:48:46.920Z,8.90
2019-02-21T22:51:19.479Z,9.00
2019-02-21T22:54:02.403Z,8.80
2019-02-21T22:59:41.192Z,8.90
2019-02-21T23:02:21.005Z,8.80
2019-02-21T23:05:01.361Z,8.80
2019-02-21T23:07:41.397Z,8.80
2019-02-21T23:10:21.283Z,8.90
2019-02-21T23:13:01.568Z,8.80
2019-02-21T23:15:41.899Z,8.70
2019-02-21T23:18:21.556Z,8.90
2019-02-21T23:21:01.649Z,8.90
2019-02-21T23:23:41.769Z,9.00
2019-02-21T23:26:22.260Z,9.00
2019-02-21T23:29:02.153Z,8.80
2019-02-21T23:31:42.457Z,9.10
2019-02-21T23:37:19.579Z,9.10
2019-02-21T23:39:59.745Z,8.90
2019-02-21T23:42:40.208Z,8.90
2019-02-21T23:45:20.191Z,8.90
2019-02-21T23:48:00.252Z,8.70
2019-02-21T23:50:27.975Z,8.90
2019-02-21T23:53:15.299Z,8.70
2019-02-21T23:56:02.374Z,8.70
2019-02-21T23:58:42.732Z,9.00
